createdAt,value
2023-04-11T00:00:11.833Z,9.98
2023-04-11T00:03:00.363Z,9.99
2023-04-11T00:05:48.306Z,9.99
2023-04-11T00:08:35.842Z,10.01
2023-04-11T00:11:23.966Z,9.99
2023-04-11T00:14:12.731Z,9.98
2023-04-11T00:17:02.763Z,9.99
2023-04-11T00:19:53.327Z,10.02
2023-04-11T00:22:42.141Z,9.99
2023-04-11T00:25:31.519Z,9.98
2023-04-11T00:28:19.258Z,9.97
2023-04-11T00:31:08.094Z,9.96
2023-04-11T00:33:56.761Z,9.95
2023-04-11T00:36:44.466Z,9.93
2023-04-11T00:39:34.280Z,9.92
2023-04-11T00:42:22.130Z,9.96
2023-04-11T00:45:11.009Z,9.91
2023-04-11T00:47:59.243Z,9.88
2023-04-11T00:50:48.244Z,9.82
2023-04-11T00:53:38.238Z,9.83
2023-04-11T00:56:26.967Z,9.79
2023-04-11T00:59:14.925Z,9.78
2023-04-11T01:02:02.759Z,9.76
2023-04-11T01:04:51.715Z,9.72
2023-04-11T01:07:44.353Z,9.69
2023-04-11T01:10:33.111Z,9.68
2023-04-11T01:13:22.154Z,9.70
2023-04-11T01:16:11.225Z,9.67
2023-04-11T01:18:58.815Z,9.63
2023-04-11T01:21:48.732Z,9.59
2023-04-11T01:24:37.600Z,9.57
2023-04-11T01:27:25.408Z,9.53
2023-04-11T01:30:13.511Z,9.48
2023-04-11T01:33:01.285Z,9.47
2023-04-11T01:35:49.212Z,9.49
2023-04-11T01:38:36.956Z,9.40
2023-04-11T01:41:27.480Z,9.33
2023-04-11T01:44:15.523Z,9.28
2023-04-11T01:47:03.827Z,9.29
2023-04-11T01:49:53.685Z,9.14
2023-04-11T01:52:41.940Z,9.08
2023-04-11T01:55:32.593Z,9.08
2023-04-11T01:58:21.568Z,9.10
2023-04-11T02:01:09.807Z,9.06
2023-04-11T02:03:57.415Z,9.02
2023-04-11T02:06:45.613Z,9.03
2023-04-11T02:09:33.011Z,8.99
2023-04-11T02:12:20.456Z,8.96
2023-04-11T02:15:10.277Z,8.93
2023-04-11T02:18:00.390Z,8.96
2023-04-11T02:20:50.217Z,8.95
2023-04-11T02:23:40.506Z,9.05
2023-04-11T02:26:28.418Z,9.03
2023-04-11T02:29:16.134Z,9.04
2023-04-11T02:32:05.178Z,8.95
2023-04-11T02:34:54.820Z,8.93
2023-04-11T02:37:42.535Z,8.94
2023-04-11T02:40:30.184Z,8.92
2023-04-11T02:43:18.156Z,8.98
2023-04-11T02:46:12.497Z,8.93
2023-04-11T02:49:02.553Z,8.92
2023-04-11T02:51:50.412Z,8.92
2023-04-11T02:54:37.810Z,8.92
2023-04-11T02:57:25.929Z,8.90
2023-04-11T03:00:14.465Z,8.87
2023-04-11T03:03:02.644Z,8.89
2023-04-11T03:05:51.763Z,8.88
2023-04-11T03:08:39.743Z,8.94
2023-04-11T03:11:27.459Z,8.93
2023-04-11T03:14:14.865Z,8.94
2023-04-11T03:17:02.364Z,9.00
2023-04-11T03:19:49.739Z,8.99
2023-04-11T03:22:38.636Z,8.96
2023-04-11T03:25:28.201Z,8.95
2023-04-11T03:28:15.906Z,8.92
2023-04-11T03:31:03.836Z,8.81
2023-04-11T03:33:51.240Z,8.76
2023-04-11T03:36:38.592Z,8.73
2023-04-11T03:39:27.528Z,8.81
2023-04-11T03:42:16.097Z,8.74
2023-04-11T03:45:04.209Z,8.76
2023-04-11T03:47:51.847Z,8.79
2023-04-11T03:50:40.577Z,8.80
2023-04-11T03:53:28.387Z,8.91
2023-04-11T03:56:17.246Z,8.86
2023-04-11T03:59:04.831Z,8.80
2023-04-11T04:01:52.431Z,8.80
2023-04-11T04:04:43.501Z,8.86
2023-04-11T04:07:31.917Z,8.93
2023-04-11T04:10:19.846Z,8.94
2023-04-11T04:13:08.657Z,8.91
2023-04-11T04:15:56.156Z,9.05
2023-04-11T04:18:43.666Z,8.93
2023-04-11T04:21:32.862Z,8.96
2023-04-11T04:24:20.603Z,8.96
2023-04-11T04:27:09.247Z,8.96
2023-04-11T04:30:03.774Z,8.98
2023-04-11T04:32:54.826Z,9.00
2023-04-11T04:35:42.470Z,9.01
2023-04-11T04:38:30.835Z,9.03
2023-04-11T04:41:22.028Z,9.05
2023-04-11T04:44:09.705Z,9.13
2023-04-11T04:46:58.953Z,9.09
2023-04-11T04:49:47.244Z,9.13
2023-04-11T04:52:35.061Z,9.13
2023-04-11T04:55:22.793Z,9.14
2023-04-11T04:58:10.145Z,9.14
2023-04-11T05:00:57.707Z,9.18
2023-04-11T05:03:50.793Z,9.20
2023-04-11T05:06:38.576Z,9.20
2023-04-11T05:09:25.954Z,9.21
2023-04-11T05:12:13.827Z,9.25
2023-04-11T05:15:01.466Z,9.27
2023-04-11T05:17:49.427Z,9.26
2023-04-11T05:20:38.179Z,9.23
2023-04-11T05:23:25.671Z,9.20
2023-04-11T05:26:13.328Z,9.19
2023-04-11T05:29:01.981Z,9.17
2023-04-11T05:31:49.721Z,9.16
2023-04-11T05:34:56.543Z,9.11
2023-04-11T05:37:48.807Z,9.08
2023-04-11T05:40:36.566Z,9.05
2023-04-11T05:43:24.196Z,9.04
2023-04-11T05:46:12.831Z,9.03
2023-04-11T05:49:01.264Z,9.01
2023-04-11T05:51:49.106Z,8.99
2023-04-11T05:54:38.687Z,8.97
2023-04-11T05:57:26.354Z,8.99
2023-04-11T06:00:16.867Z,8.96
2023-04-11T06:03:05.266Z,8.94
2023-04-11T06:05:53.404Z,8.92
2023-04-11T06:08:41.578Z,8.89
2023-04-11T06:11:30.913Z,8.91
2023-04-11T06:14:18.383Z,8.94
2023-04-11T06:17:05.843Z,8.94
2023-04-11T06:19:53.564Z,8.95
2023-04-11T06:22:41.239Z,8.94
2023-04-11T06:25:28.810Z,8.96
2023-04-11T06:28:17.613Z,8.99
2023-04-11T06:31:06.057Z,9.02
2023-04-11T06:33:53.986Z,9.04
2023-04-11T06:36:42.749Z,9.03
2023-04-11T06:39:31.576Z,9.03
2023-04-11T06:42:19.381Z,9.06
2023-04-11T06:45:10.425Z,9.06
2023-04-11T06:47:58.214Z,9.07
2023-04-11T06:50:46.373Z,9.07
2023-04-11T06:53:34.230Z,9.08
2023-04-11T06:56:22.495Z,9.05
2023-04-11T06:59:10.722Z,9.05
2023-04-11T07:02:00.164Z,9.02
2023-04-11T07:04:47.717Z,9.00
2023-04-11T07:07:36.343Z,8.99
2023-04-11T07:10:25.206Z,8.99
2023-04-11T07:13:12.871Z,9.02
2023-04-11T07:16:00.341Z,9.03
2023-04-11T07:18:49.736Z,9.06
2023-04-11T07:21:38.277Z,9.11
2023-04-11T07:24:27.170Z,9.14
2023-04-11T07:27:15.723Z,9.17
2023-04-11T07:30:03.764Z,9.21
2023-04-11T07:32:51.282Z,9.26
2023-04-11T07:35:40.617Z,9.28
2023-04-11T07:38:29.484Z,9.34
2023-04-11T07:41:17.281Z,9.41
2023-04-11T07:44:06.518Z,9.48
2023-04-11T07:46:53.952Z,9.53
2023-04-11T07:49:41.539Z,9.60
2023-04-11T07:52:30.349Z,9.67
2023-04-11T07:55:18.078Z,9.72
2023-04-11T07:58:05.956Z,9.76
2023-04-11T08:00:54.138Z,9.80
2023-04-11T08:03:42.033Z,9.86
2023-04-11T08:06:31.454Z,9.90
2023-04-11T08:09:20.653Z,9.93
2023-04-11T08:12:08.239Z,10.01
2023-04-11T08:14:55.826Z,10.07
2023-04-11T08:17:43.827Z,10.09
2023-04-11T08:20:31.556Z,10.21
2023-04-11T08:23:19.732Z,10.24
2023-04-11T08:26:11.973Z,10.39
2023-04-11T08:28:59.989Z,10.49
2023-04-11T08:31:47.418Z,10.59
2023-04-11T08:34:35.427Z,10.71
2023-04-11T08:37:25.794Z,10.72
2023-04-11T08:40:13.800Z,10.88
2023-04-11T08:43:03.219Z,10.95
2023-04-11T08:45:51.149Z,10.99
2023-04-11T08:48:40.302Z,11.24
2023-04-11T08:51:28.125Z,11.38
2023-04-11T08:54:17.495Z,11.75
2023-04-11T08:57:05.450Z,11.96
2023-04-11T08:59:57.375Z,12.31
2023-04-11T09:03:01.104Z,13.02
2023-04-11T09:05:50.373Z,12.95
2023-04-11T09:08:40.445Z,13.56
2023-04-11T09:11:28.639Z,13.95
2023-04-11T09:14:16.189Z,13.94
2023-04-11T09:17:13.173Z,14.00
2023-04-11T09:20:18.917Z,14.30
2023-04-11T09:23:06.608Z,14.26
2023-04-11T09:25:55.428Z,14.46
2023-04-11T09:28:44.804Z,14.67
2023-04-11T09:31:43.314Z,14.99
2023-04-11T09:34:32.781Z,15.13
2023-04-11T09:37:20.266Z,15.45
2023-04-11T09:40:09.890Z,15.93
2023-04-11T09:43:00.586Z,15.99
2023-04-11T09:45:54.172Z,16.27
2023-04-11T09:48:46.955Z,16.64
2023-04-11T09:51:37.917Z,16.92
2023-04-11T09:54:28.399Z,16.77
2023-04-11T09:57:16.754Z,17.19
2023-04-11T10:00:14.202Z,17.36
2023-04-11T10:03:02.331Z,17.14
2023-04-11T10:05:54.514Z,17.51
2023-04-11T10:08:44.333Z,17.26
2023-04-11T10:11:31.875Z,17.15
2023-04-11T10:14:45.238Z,17.24
2023-04-11T10:17:33.309Z,17.15
2023-04-11T10:20:47.452Z,17.06
2023-04-11T10:24:12.808Z,17.14
2023-04-11T10:27:04.844Z,17.09
2023-04-11T10:29:53.835Z,17.00
2023-04-11T10:32:42.033Z,16.97
2023-04-11T10:35:30.209Z,16.91
2023-04-11T10:38:49.359Z,16.95
2023-04-11T10:41:38.793Z,16.86
2023-04-11T10:44:26.459Z,17.03
2023-04-11T10:47:18.757Z,17.17
2023-04-11T10:50:45.041Z,17.69
2023-04-11T10:53:38.511Z,18.18
2023-04-11T10:56:58.794Z,18.50
2023-04-11T11:00:15.980Z,18.54
2023-04-11T11:03:04.832Z,18.50
2023-04-11T11:06:02.309Z,18.71
2023-04-11T11:08:50.218Z,18.69
2023-04-11T11:11:37.886Z,18.75
2023-04-11T11:14:31.115Z,18.99
2023-04-11T11:17:22.103Z,19.10
2023-04-11T11:20:20.158Z,19.51
2023-04-11T11:23:10.694Z,19.86
2023-04-11T11:26:00.267Z,19.92
2023-04-11T11:28:51.548Z,20.20
2023-04-11T11:31:43.043Z,20.32
2023-04-11T11:34:32.827Z,20.25
2023-04-11T11:37:21.428Z,20.22
2023-04-11T11:40:13.173Z,19.97
2023-04-11T11:43:01.462Z,19.86
2023-04-11T11:46:08.719Z,20.00
2023-04-11T11:49:04.048Z,19.67
2023-04-11T11:51:53.341Z,19.27
2023-04-11T11:54:48.176Z,19.37
2023-04-11T11:57:36.365Z,19.39
2023-04-11T12:00:27.129Z,19.47
2023-04-11T12:03:22.287Z,19.40
2023-04-11T12:06:13.390Z,19.42
2023-04-11T12:09:08.401Z,19.34
2023-04-11T12:11:56.508Z,19.17
2023-04-11T12:14:54.560Z,18.66
2023-04-11T12:17:42.829Z,18.67
2023-04-11T12:20:31.976Z,18.54
2023-04-11T12:23:21.264Z,18.30
2023-04-11T12:26:09.105Z,18.20
2023-04-11T12:28:56.816Z,18.27
2023-04-11T12:31:45.962Z,18.34
2023-04-11T12:34:33.602Z,18.45
2023-04-11T12:37:21.599Z,18.54
2023-04-11T12:40:12.780Z,18.70
2023-04-11T12:43:01.031Z,18.90
2023-04-11T12:45:48.850Z,18.97
2023-04-11T12:48:36.541Z,18.88
2023-04-11T12:51:23.993Z,18.67
2023-04-11T12:54:11.581Z,18.64
2023-04-11T12:57:00.495Z,18.42
2023-04-11T12:59:48.291Z,18.05
2023-04-11T13:02:42.884Z,17.70
2023-04-11T13:05:31.708Z,17.42
2023-04-11T13:08:19.596Z,17.03
2023-04-11T13:11:08.236Z,16.73
2023-04-11T13:13:57.196Z,16.52
2023-04-11T13:16:48.170Z,16.34
2023-04-11T13:19:36.373Z,16.16
2023-04-11T13:22:23.825Z,15.98
2023-04-11T13:25:12.348Z,15.85
2023-04-11T13:28:00.075Z,15.81
2023-04-11T13:30:49.161Z,15.58
2023-04-11T13:33:37.013Z,15.62
2023-04-11T13:36:24.699Z,15.54
2023-04-11T13:39:13.543Z,15.47
2023-04-11T13:42:01.171Z,15.45
2023-04-11T13:44:48.711Z,15.43
2023-04-11T13:47:38.929Z,15.52
2023-04-11T13:50:26.751Z,15.54
2023-04-11T13:53:14.313Z,15.82
2023-04-11T13:56:03.868Z,15.79
2023-04-11T13:58:51.936Z,16.02
2023-04-11T14:01:39.707Z,16.15
2023-04-11T14:04:28.880Z,16.30
2023-04-11T14:07:16.386Z,16.45
2023-04-11T14:10:04.858Z,16.60
2023-04-11T14:12:52.548Z,16.70
2023-04-11T14:15:39.865Z,16.82
2023-04-11T14:18:27.419Z,17.08
2023-04-11T14:21:18.181Z,17.40
2023-04-11T14:24:06.705Z,17.51
2023-04-11T14:26:54.497Z,17.77
2023-04-11T14:29:42.296Z,17.96
2023-04-11T14:32:30.279Z,17.74
2023-04-11T14:35:17.770Z,17.82
2023-04-11T14:38:06.774Z,18.34
2023-04-11T14:40:54.381Z,18.63
2023-04-11T14:43:46.252Z,18.79
2023-04-11T14:46:34.458Z,18.75
2023-04-11T14:49:21.889Z,18.73
2023-04-11T14:52:09.753Z,18.75
2023-04-11T14:54:58.859Z,19.21
2023-04-11T14:57:48.918Z,19.18
2023-04-11T15:00:36.671Z,19.53
2023-04-11T15:03:24.422Z,19.68
2023-04-11T15:06:17.430Z,19.75
2023-04-11T15:09:05.744Z,19.73
2023-04-11T15:11:55.444Z,19.82
2023-04-11T15:14:43.303Z,19.69
2023-04-11T15:17:31.047Z,19.77
2023-04-11T15:20:20.007Z,19.52
2023-04-11T15:23:07.641Z,19.38
2023-04-11T15:25:56.812Z,19.47
2023-04-11T15:28:46.380Z,19.71
2023-04-11T15:31:34.337Z,19.86
2023-04-11T15:34:23.321Z,20.04
2023-04-11T15:37:13.520Z,19.66
2023-04-11T15:40:05.980Z,19.93
2023-04-11T15:42:54.454Z,20.46
2023-04-11T15:45:46.087Z,20.62
2023-04-11T15:48:34.136Z,20.42
2023-04-11T15:51:22.956Z,20.44
2023-04-11T15:54:10.489Z,20.54
2023-04-11T15:56:58.142Z,20.49
2023-04-11T15:59:49.255Z,20.28
2023-04-11T16:02:39.046Z,20.26
2023-04-11T16:05:27.940Z,20.37
2023-04-11T16:08:17.629Z,20.26
2023-04-11T16:11:05.491Z,20.06
2023-04-11T16:13:53.135Z,20.03
2023-04-11T16:16:41.227Z,19.78
2023-04-11T16:19:30.105Z,19.51
2023-04-11T16:22:17.823Z,19.17
2023-04-11T16:25:06.967Z,18.96
2023-04-11T16:27:54.373Z,18.84
2023-04-11T16:30:41.983Z,18.75
2023-04-11T16:33:29.306Z,18.78
2023-04-11T16:36:18.569Z,18.80
2023-04-11T16:39:06.395Z,18.89
2023-04-11T16:41:57.703Z,18.81
2023-04-11T16:44:45.443Z,18.79
2023-04-11T16:47:33.012Z,18.80
2023-04-11T16:50:20.986Z,18.77
2023-04-11T16:53:09.789Z,18.55
2023-04-11T16:55:58.395Z,18.43
2023-04-11T16:58:46.227Z,18.22
2023-04-11T17:01:34.114Z,17.91
2023-04-11T17:04:21.951Z,17.64
2023-04-11T17:07:11.128Z,17.55
2023-04-11T17:10:00.038Z,17.43
2023-04-11T17:12:47.877Z,17.23
2023-04-11T17:15:36.176Z,16.97
2023-04-11T17:18:24.052Z,16.52
2023-04-11T17:21:11.669Z,15.96
2023-04-11T17:23:59.562Z,16.10
2023-04-11T17:26:48.825Z,16.02
2023-04-11T17:29:36.695Z,15.89
2023-04-11T17:32:24.234Z,15.70
2023-04-11T17:35:12.647Z,15.58
2023-04-11T17:38:00.690Z,15.50
2023-04-11T17:40:48.328Z,15.39
2023-04-11T17:43:37.272Z,15.24
2023-04-11T17:46:25.010Z,15.10
2023-04-11T17:49:13.030Z,14.93
2023-04-11T17:52:00.698Z,14.57
2023-04-11T17:54:48.548Z,14.53
2023-04-11T17:57:36.228Z,14.31
2023-04-11T18:00:26.353Z,14.04
2023-04-11T18:03:15.013Z,13.95
2023-04-11T18:06:03.293Z,13.84
2023-04-11T18:08:52.203Z,13.70
2023-04-11T18:11:41.899Z,13.55
2023-04-11T18:14:29.464Z,13.42
2023-04-11T18:17:19.113Z,13.32
2023-04-11T18:20:09.547Z,13.08
2023-04-11T18:22:59.500Z,12.97
2023-04-11T18:25:46.842Z,12.77
2023-04-11T18:28:34.512Z,12.69
2023-04-11T18:31:22.683Z,12.62
2023-04-11T18:34:12.505Z,12.53
2023-04-11T18:37:00.695Z,12.23
2023-04-11T18:39:48.088Z,12.13
2023-04-11T18:42:35.577Z,11.96
2023-04-11T18:45:23.265Z,11.85
2023-04-11T18:48:10.875Z,11.81
2023-04-11T18:51:01.406Z,11.71
2023-04-11T18:53:49.327Z,11.58
2023-04-11T18:56:39.578Z,11.44
2023-04-11T18:59:29.764Z,11.35
2023-04-11T19:02:17.720Z,11.25
2023-04-11T19:05:07.978Z,11.16
2023-04-11T19:07:57.004Z,11.07
2023-04-11T19:10:44.966Z,10.98
2023-04-11T19:13:32.933Z,10.91
2023-04-11T19:16:20.832Z,10.80
2023-04-11T19:19:08.384Z,10.70
2023-04-11T19:21:56.169Z,10.57
2023-04-11T19:24:46.338Z,10.49
2023-04-11T19:27:34.212Z,10.41
2023-04-11T19:30:22.093Z,10.33
2023-04-11T19:33:09.969Z,10.25
2023-04-11T19:35:57.968Z,10.16
2023-04-11T19:38:46.136Z,10.07
2023-04-11T19:41:35.496Z,9.97
2023-04-11T19:44:23.085Z,9.87
2023-04-11T19:47:10.603Z,9.79
2023-04-11T19:50:00.437Z,9.72
2023-04-11T19:52:48.557Z,9.63
2023-04-11T19:55:36.264Z,9.56
2023-04-11T19:58:25.515Z,9.44
2023-04-11T20:01:13.024Z,9.35
2023-04-11T20:04:02.262Z,9.26
2023-04-11T20:06:50.955Z,9.19
2023-04-11T20:09:38.668Z,9.10
2023-04-11T20:12:26.404Z,9.05
2023-04-11T20:15:15.828Z,8.99
2023-04-11T20:18:03.436Z,8.91
2023-04-11T20:20:51.597Z,8.85
2023-04-11T20:23:39.294Z,8.76
2023-04-11T20:26:27.710Z,8.65
2023-04-11T20:29:17.933Z,8.62
2023-04-11T20:32:06.970Z,8.50
2023-04-11T20:34:54.597Z,8.45
2023-04-11T20:37:44.009Z,8.38
2023-04-11T20:40:31.793Z,8.28
2023-04-11T20:43:19.354Z,8.25
2023-04-11T20:46:08.445Z,8.20
2023-04-11T20:48:57.500Z,8.05
2023-04-11T20:51:45.467Z,7.88
2023-04-11T20:54:33.010Z,7.87
2023-04-11T20:57:20.365Z,7.87
2023-04-11T21:00:14.498Z,7.87
2023-04-11T21:03:02.232Z,7.81
2023-04-11T21:05:51.564Z,7.77
2023-04-11T21:08:39.053Z,7.70
2023-04-11T21:11:27.110Z,7.62
2023-04-11T21:14:14.821Z,7.55
2023-04-11T21:17:02.230Z,7.53
2023-04-11T21:19:49.717Z,7.46
2023-04-11T21:22:40.215Z,7.44
2023-04-11T21:25:28.232Z,7.34
2023-04-11T21:28:16.387Z,7.27
2023-04-11T21:31:04.323Z,7.23
2023-04-11T21:33:52.527Z,7.21
2023-04-11T21:36:40.337Z,7.15
2023-04-11T21:39:29.192Z,7.14
2023-04-11T21:42:16.792Z,7.01
2023-04-11T21:45:04.436Z,6.95
2023-04-11T21:47:53.054Z,6.90
2023-04-11T21:50:40.676Z,6.87
2023-04-11T21:53:28.269Z,6.78
2023-04-11T21:56:17.221Z,6.67
2023-04-11T21:59:04.671Z,6.62
2023-04-11T22:01:52.347Z,6.59
2023-04-11T22:04:55.857Z,6.51
2023-04-11T22:07:48.068Z,6.32
2023-04-11T22:10:46.633Z,6.28
2023-04-11T22:13:37.725Z,6.27
2023-04-11T22:16:30.543Z,6.24
2023-04-11T22:19:19.064Z,6.19
2023-04-11T22:22:08.265Z,6.12
2023-04-11T22:24:59.139Z,6.05
2023-04-11T22:27:46.974Z,6.03
2023-04-11T22:30:38.109Z,6.00
2023-04-11T22:33:25.947Z,5.93
2023-04-11T22:36:13.388Z,5.90
2023-04-11T22:39:01.044Z,5.91
2023-04-11T22:41:51.136Z,5.87
2023-04-11T22:44:38.856Z,5.83
2023-04-11T22:47:29.023Z,5.81
2023-04-11T22:50:17.758Z,5.79
2023-04-11T22:53:09.260Z,5.76
2023-04-11T22:55:57.010Z,5.71
2023-04-11T22:58:46.026Z,5.68
2023-04-11T23:01:34.131Z,5.64
2023-04-11T23:04:23.293Z,5.61
2023-04-11T23:07:11.084Z,5.57
2023-04-11T23:10:02.328Z,5.52
2023-04-11T23:12:50.241Z,5.48
2023-04-11T23:15:39.282Z,5.43
2023-04-11T23:18:26.743Z,5.40
2023-04-11T23:21:15.520Z,5.35
2023-04-11T23:24:03.035Z,5.35
2023-04-11T23:26:50.794Z,5.34
2023-04-11T23:29:38.462Z,5.33
2023-04-11T23:32:26.843Z,5.28
2023-04-11T23:35:17.067Z,5.29
2023-04-11T23:38:06.927Z,5.29
2023-04-11T23:40:54.804Z,5.26
2023-04-11T23:43:42.224Z,5.22
2023-04-11T23:46:29.694Z,5.19
2023-04-11T23:49:17.176Z,5.16
2023-04-11T23:52:04.634Z,5.13
2023-04-11T23:54:53.352Z,5.09
2023-04-11T23:57:41.257Z,5.06
